sensor_id;sensor_type;location;lat;lon;timestamp;P1;durP1;ratioP1;P2;durP2;ratioP2
64986;SDS011;67903;52.108;9.358;2024-03-06T00:01:44;15.45;;;12.93;;
64986;SDS011;67903;52.108;9.358;2024-03-06T00:04:30;16.27;;;13.20;;
64986;SDS011;67903;52.108;9.358;2024-03-06T00:07:15;15.10;;;13.10;;
64986;SDS011;67903;52.108;9.358;2024-03-06T00:10:01;17.95;;;12.93;;
64986;SDS011;67903;52.108;9.358;2024-03-06T00:12:47;17.40;;;12.38;;
64986;SDS011;67903;52.108;9.358;2024-03-06T00:15:32;15.52;;;11.98;;
64986;SDS011;67903;52.108;9.358;2024-03-06T00:18:18;14.65;;;12.18;;
64986;SDS011;67903;52.108;9.358;2024-03-06T00:21:04;13.50;;;12.10;;
64986;SDS011;67903;52.108;9.358;2024-03-06T00:23:49;18.27;;;12.27;;
64986;SDS011;67903;52.108;9.358;2024-03-06T00:26:35;12.90;;;11.55;;
64986;SDS011;67903;52.108;9.358;2024-03-06T00:29:20;16.08;;;11.77;;
64986;SDS011;67903;52.108;9.358;2024-03-06T00:32:06;15.15;;;12.30;;
64986;SDS011;67903;52.108;9.358;2024-03-06T00:34:52;14.75;;;12.00;;
64986;SDS011;67903;52.108;9.358;2024-03-06T00:37:38;14.38;;;11.80;;
64986;SDS011;67903;52.108;9.358;2024-03-06T00:40:23;16.20;;;12.15;;
64986;SDS011;67903;52.108;9.358;2024-03-06T00:43:09;12.50;;;11.20;;
64986;SDS011;67903;52.108;9.358;2024-03-06T00:45:55;14.77;;;10.85;;
64986;SDS011;67903;52.108;9.358;2024-03-06T00:48:41;15.43;;;11.93;;
64986;SDS011;67903;52.108;9.358;2024-03-06T00:51:27;15.10;;;11.60;;
64986;SDS011;67903;52.108;9.358;2024-03-06T00:54:28;14.85;;;12.60;;
64986;SDS011;67903;52.108;9.358;2024-03-06T00:57:13;15.10;;;12.48;;
64986;SDS011;67903;52.108;9.358;2024-03-06T00:59:59;16.95;;;12.48;;
64986;SDS011;67903;52.108;9.358;2024-03-06T01:02:45;14.15;;;11.85;;
64986;SDS011;67903;52.108;9.358;2024-03-06T01:05:30;17.88;;;12.40;;
64986;SDS011;67903;52.108;9.358;2024-03-06T01:08:16;13.82;;;11.45;;
64986;SDS011;67903;52.108;9.358;2024-03-06T01:11:03;17.23;;;12.52;;
64986;SDS011;67903;52.108;9.358;2024-03-06T01:13:49;16.40;;;12.48;;
64986;SDS011;67903;52.108;9.358;2024-03-06T01:16:35;14.38;;;12.23;;
64986;SDS011;67903;52.108;9.358;2024-03-06T01:19:20;16.92;;;11.65;;
64986;SDS011;67903;52.108;9.358;2024-03-06T01:22:06;16.52;;;13.32;;
64986;SDS011;67903;52.108;9.358;2024-03-06T01:24:52;15.07;;;12.73;;
64986;SDS011;67903;52.108;9.358;2024-03-06T01:27:38;14.02;;;12.32;;
64986;SDS011;67903;52.108;9.358;2024-03-06T01:30:24;13.55;;;12.18;;
64986;SDS011;67903;52.108;9.358;2024-03-06T01:33:09;15.45;;;12.93;;
64986;SDS011;67903;52.108;9.358;2024-03-06T01:35:55;16.17;;;13.07;;
64986;SDS011;67903;52.108;9.358;2024-03-06T01:38:40;14.93;;;12.32;;
64986;SDS011;67903;52.108;9.358;2024-03-06T01:41:26;15.02;;;12.93;;
64986;SDS011;67903;52.108;9.358;2024-03-06T01:44:12;17.25;;;12.73;;
64986;SDS011;67903;52.108;9.358;2024-03-06T01:46:59;14.85;;;12.45;;
64986;SDS011;67903;52.108;9.358;2024-03-06T01:52:35;17.27;;;12.90;;
64986;SDS011;67903;52.108;9.358;2024-03-06T01:58:30;17.92;;;13.07;;
64986;SDS011;67903;52.108;9.358;2024-03-06T02:01:19;14.63;;;12.90;;
64986;SDS011;67903;52.108;9.358;2024-03-06T02:04:06;15.23;;;13.23;;
64986;SDS011;67903;52.108;9.358;2024-03-06T02:06:54;17.60;;;13.55;;
64986;SDS011;67903;52.108;9.358;2024-03-06T02:09:40;15.95;;;13.27;;
64986;SDS011;67903;52.108;9.358;2024-03-06T02:12:26;14.48;;;12.98;;
64986;SDS011;67903;52.108;9.358;2024-03-06T02:15:12;15.82;;;13.20;;
64986;SDS011;67903;52.108;9.358;2024-03-06T02:17:58;17.05;;;13.40;;
64986;SDS011;67903;52.108;9.358;2024-03-06T02:20:44;17.35;;;13.75;;
64986;SDS011;67903;52.108;9.358;2024-03-06T02:23:30;16.85;;;12.70;;
64986;SDS011;67903;52.108;9.358;2024-03-06T02:26:19;15.20;;;13.32;;
64986;SDS011;67903;52.108;9.358;2024-03-06T02:29:06;19.83;;;13.88;;
64986;SDS011;67903;52.108;9.358;2024-03-06T02:31:51;16.52;;;14.25;;
64986;SDS011;67903;52.108;9.358;2024-03-06T02:34:37;17.67;;;14.27;;
64986;SDS011;67903;52.108;9.358;2024-03-06T02:37:22;18.27;;;13.80;;
64986;SDS011;67903;52.108;9.358;2024-03-06T02:40:09;16.67;;;14.32;;
64986;SDS011;67903;52.108;9.358;2024-03-06T02:42:55;16.90;;;13.40;;
64986;SDS011;67903;52.108;9.358;2024-03-06T02:45:40;17.73;;;14.25;;
64986;SDS011;67903;52.108;9.358;2024-03-06T02:48:26;18.00;;;13.88;;
64986;SDS011;67903;52.108;9.358;2024-03-06T02:51:11;19.60;;;15.38;;
64986;SDS011;67903;52.108;9.358;2024-03-06T02:53:57;18.95;;;15.35;;
64986;SDS011;67903;52.108;9.358;2024-03-06T02:56:43;18.42;;;15.40;;
64986;SDS011;67903;52.108;9.358;2024-03-06T02:59:28;20.13;;;14.75;;
64986;SDS011;67903;52.108;9.358;2024-03-06T03:02:14;17.25;;;14.80;;
64986;SDS011;67903;52.108;9.358;2024-03-06T03:04:59;16.92;;;14.85;;
64986;SDS011;67903;52.108;9.358;2024-03-06T03:07:45;19.20;;;15.23;;
64986;SDS011;67903;52.108;9.358;2024-03-06T03:10:30;19.08;;;14.05;;
64986;SDS011;67903;52.108;9.358;2024-03-06T03:13:16;18.05;;;15.18;;
64986;SDS011;67903;52.108;9.358;2024-03-06T03:16:01;19.23;;;14.75;;
64986;SDS011;67903;52.108;9.358;2024-03-06T03:18:49;18.27;;;15.40;;
64986;SDS011;67903;52.108;9.358;2024-03-06T03:21:34;17.73;;;15.18;;
64986;SDS011;67903;52.108;9.358;2024-03-06T03:24:20;18.10;;;15.55;;
64986;SDS011;67903;52.108;9.358;2024-03-06T03:27:06;18.70;;;14.90;;
64986;SDS011;67903;52.108;9.358;2024-03-06T03:29:52;17.58;;;15.30;;
64986;SDS011;67903;52.108;9.358;2024-03-06T03:32:38;18.58;;;15.23;;
64986;SDS011;67903;52.108;9.358;2024-03-06T03:35:24;19.45;;;15.00;;
64986;SDS011;67903;52.108;9.358;2024-03-06T03:38:10;16.40;;;14.70;;
64986;SDS011;67903;52.108;9.358;2024-03-06T03:40:55;18.15;;;15.35;;
64986;SDS011;67903;52.108;9.358;2024-03-06T03:43:41;18.70;;;15.32;;
64986;SDS011;67903;52.108;9.358;2024-03-06T03:46:27;18.50;;;15.25;;
64986;SDS011;67903;52.108;9.358;2024-03-06T03:49:13;19.73;;;15.57;;
64986;SDS011;67903;52.108;9.358;2024-03-06T03:51:58;19.60;;;14.98;;
64986;SDS011;67903;52.108;9.358;2024-03-06T03:54:44;19.23;;;15.77;;
64986;SDS011;67903;52.108;9.358;2024-03-06T03:57:30;21.77;;;15.60;;
64986;SDS011;67903;52.108;9.358;2024-03-06T04:00:16;20.67;;;16.25;;
64986;SDS011;67903;52.108;9.358;2024-03-06T04:03:01;21.60;;;16.45;;
64986;SDS011;67903;52.108;9.358;2024-03-06T04:05:48;17.75;;;15.27;;
64986;SDS011;67903;52.108;9.358;2024-03-06T04:08:34;21.88;;;15.93;;
64986;SDS011;67903;52.108;9.358;2024-03-06T04:11:19;20.10;;;16.50;;
64986;SDS011;67903;52.108;9.358;2024-03-06T04:14:05;18.23;;;15.98;;
64986;SDS011;67903;52.108;9.358;2024-03-06T04:16:53;20.58;;;16.48;;
64986;SDS011;67903;52.108;9.358;2024-03-06T04:19:39;18.90;;;15.50;;
64986;SDS011;67903;52.108;9.358;2024-03-06T04:22:25;21.70;;;16.25;;
64986;SDS011;67903;52.108;9.358;2024-03-06T04:25:10;22.48;;;16.75;;
64986;SDS011;67903;52.108;9.358;2024-03-06T04:27:56;19.45;;;16.58;;
64986;SDS011;67903;52.108;9.358;2024-03-06T04:30:42;21.50;;;17.30;;
64986;SDS011;67903;52.108;9.358;2024-03-06T04:33:27;19.95;;;16.52;;
64986;SDS011;67903;52.108;9.358;2024-03-06T04:36:13;18.77;;;16.10;;
64986;SDS011;67903;52.108;9.358;2024-03-06T04:38:58;19.63;;;16.35;;
64986;SDS011;67903;52.108;9.358;2024-03-06T04:41:44;20.23;;;16.50;;
64986;SDS011;67903;52.108;9.358;2024-03-06T04:44:29;19.98;;;16.58;;
64986;SDS011;67903;52.108;9.358;2024-03-06T04:47:18;22.85;;;17.02;;
64986;SDS011;67903;52.108;9.358;2024-03-06T04:50:07;22.00;;;16.98;;
64986;SDS011;67903;52.108;9.358;2024-03-06T04:52:55;21.48;;;17.20;;
64986;SDS011;67903;52.108;9.358;2024-03-06T04:55:41;19.05;;;16.85;;
64986;SDS011;67903;52.108;9.358;2024-03-06T04:58:26;23.77;;;17.25;;
64986;SDS011;67903;52.108;9.358;2024-03-06T05:01:12;19.23;;;17.13;;
64986;SDS011;67903;52.108;9.358;2024-03-06T05:03:58;22.77;;;17.80;;
64986;SDS011;67903;52.108;9.358;2024-03-06T05:07:01;21.05;;;16.88;;
64986;SDS011;67903;52.108;9.358;2024-03-06T05:10:04;23.77;;;17.80;;
64986;SDS011;67903;52.108;9.358;2024-03-06T05:13:10;23.30;;;17.90;;
64986;SDS011;67903;52.108;9.358;2024-03-06T05:16:13;24.73;;;17.42;;
64986;SDS011;67903;52.108;9.358;2024-03-06T05:19:16;19.95;;;17.40;;
64986;SDS011;67903;52.108;9.358;2024-03-06T05:22:19;18.98;;;16.38;;
64986;SDS011;67903;52.108;9.358;2024-03-06T05:25:22;25.92;;;18.02;;
64986;SDS011;67903;52.108;9.358;2024-03-06T05:28:25;22.48;;;17.33;;
64986;SDS011;67903;52.108;9.358;2024-03-06T05:31:28;20.92;;;17.25;;
64986;SDS011;67903;52.108;9.358;2024-03-06T05:34:31;23.17;;;17.92;;
64986;SDS011;67903;52.108;9.358;2024-03-06T05:37:34;23.15;;;16.90;;
64986;SDS011;67903;52.108;9.358;2024-03-06T05:40:36;23.98;;;18.42;;
64986;SDS011;67903;52.108;9.358;2024-03-06T05:43:43;21.98;;;17.70;;
64986;SDS011;67903;52.108;9.358;2024-03-06T05:46:46;27.48;;;18.13;;
64986;SDS011;67903;52.108;9.358;2024-03-06T05:49:49;24.23;;;18.15;;
64986;SDS011;67903;52.108;9.358;2024-03-06T05:52:53;21.38;;;17.17;;
64986;SDS011;67903;52.108;9.358;2024-03-06T05:55:56;23.50;;;18.85;;
64986;SDS011;67903;52.108;9.358;2024-03-06T05:58:59;23.17;;;18.27;;
64986;SDS011;67903;52.108;9.358;2024-03-06T06:01:47;22.17;;;18.38;;
64986;SDS011;67903;52.108;9.358;2024-03-06T06:04:32;20.00;;;16.83;;
64986;SDS011;67903;52.108;9.358;2024-03-06T06:07:28;22.27;;;18.42;;
64986;SDS011;67903;52.108;9.358;2024-03-06T06:10:13;23.85;;;19.15;;
64986;SDS011;67903;52.108;9.358;2024-03-06T06:13:01;21.90;;;17.70;;
64986;SDS011;67903;52.108;9.358;2024-03-06T06:15:49;24.40;;;17.60;;
64986;SDS011;67903;52.108;9.358;2024-03-06T06:18:35;23.50;;;18.25;;
64986;SDS011;67903;52.108;9.358;2024-03-06T06:21:20;24.08;;;19.08;;
64986;SDS011;67903;52.108;9.358;2024-03-06T06:24:06;21.42;;;18.50;;
64986;SDS011;67903;52.108;9.358;2024-03-06T06:26:52;25.88;;;18.65;;
64986;SDS011;67903;52.108;9.358;2024-03-06T06:29:37;23.00;;;18.67;;
64986;SDS011;67903;52.108;9.358;2024-03-06T06:32:23;22.85;;;18.42;;
64986;SDS011;67903;52.108;9.358;2024-03-06T06:35:09;23.35;;;19.10;;
64986;SDS011;67903;52.108;9.358;2024-03-06T06:37:56;22.23;;;17.23;;
64986;SDS011;67903;52.108;9.358;2024-03-06T06:40:41;23.13;;;18.40;;
64986;SDS011;67903;52.108;9.358;2024-03-06T06:43:27;23.27;;;18.50;;
64986;SDS011;67903;52.108;9.358;2024-03-06T06:46:12;30.00;;;23.05;;
64986;SDS011;67903;52.108;9.358;2024-03-06T06:48:58;25.27;;;19.27;;
64986;SDS011;67903;52.108;9.358;2024-03-06T06:51:44;21.65;;;17.25;;
64986;SDS011;67903;52.108;9.358;2024-03-06T06:54:29;22.65;;;18.80;;
64986;SDS011;67903;52.108;9.358;2024-03-06T06:57:15;22.27;;;17.63;;
64986;SDS011;67903;52.108;9.358;2024-03-06T07:00:01;23.40;;;19.08;;
64986;SDS011;67903;52.108;9.358;2024-03-06T07:02:56;22.80;;;18.48;;
64986;SDS011;67903;52.108;9.358;2024-03-06T07:05:43;21.33;;;18.30;;
64986;SDS011;67903;52.108;9.358;2024-03-06T07:08:29;22.90;;;17.75;;
64986;SDS011;67903;52.108;9.358;2024-03-06T07:11:16;23.10;;;18.30;;
64986;SDS011;67903;52.108;9.358;2024-03-06T07:14:02;26.35;;;19.05;;
64986;SDS011;67903;52.108;9.358;2024-03-06T07:16:47;29.73;;;21.67;;
64986;SDS011;67903;52.108;9.358;2024-03-06T07:19:33;24.10;;;18.50;;
64986;SDS011;67903;52.108;9.358;2024-03-06T07:22:18;21.33;;;18.73;;
64986;SDS011;67903;52.108;9.358;2024-03-06T07:25:04;23.77;;;18.15;;
64986;SDS011;67903;52.108;9.358;2024-03-06T07:27:50;22.02;;;17.88;;
64986;SDS011;67903;52.108;9.358;2024-03-06T07:30:35;21.98;;;17.40;;
64986;SDS011;67903;52.108;9.358;2024-03-06T07:33:21;22.73;;;18.73;;
64986;SDS011;67903;52.108;9.358;2024-03-06T07:36:06;21.85;;;17.17;;
64986;SDS011;67903;52.108;9.358;2024-03-06T07:38:52;21.63;;;17.42;;
64986;SDS011;67903;52.108;9.358;2024-03-06T07:41:37;21.83;;;18.20;;
64986;SDS011;67903;52.108;9.358;2024-03-06T07:44:23;24.38;;;19.75;;
64986;SDS011;67903;52.108;9.358;2024-03-06T07:47:09;23.42;;;17.98;;
64986;SDS011;67903;52.108;9.358;2024-03-06T07:49:54;21.55;;;17.33;;
64986;SDS011;67903;52.108;9.358;2024-03-06T07:52:40;21.08;;;17.55;;
64986;SDS011;67903;52.108;9.358;2024-03-06T07:55:25;20.00;;;16.95;;
64986;SDS011;67903;52.108;9.358;2024-03-06T07:58:11;20.48;;;17.25;;
64986;SDS011;67903;52.108;9.358;2024-03-06T08:00:56;21.80;;;17.08;;
64986;SDS011;67903;52.108;9.358;2024-03-06T08:03:42;22.20;;;17.80;;
64986;SDS011;67903;52.108;9.358;2024-03-06T08:06:28;24.05;;;18.35;;
64986;SDS011;67903;52.108;9.358;2024-03-06T08:09:14;24.38;;;19.20;;
64986;SDS011;67903;52.108;9.358;2024-03-06T08:12:01;20.75;;;16.95;;
64986;SDS011;67903;52.108;9.358;2024-03-06T08:14:47;26.85;;;19.17;;
64986;SDS011;67903;52.108;9.358;2024-03-06T08:17:32;24.55;;;18.13;;
64986;SDS011;67903;52.108;9.358;2024-03-06T08:20:18;20.70;;;17.05;;
64986;SDS011;67903;52.108;9.358;2024-03-06T08:23:03;23.90;;;16.05;;
64986;SDS011;67903;52.108;9.358;2024-03-06T08:25:49;22.42;;;18.13;;
64986;SDS011;67903;52.108;9.358;2024-03-06T08:28:34;19.90;;;16.90;;
64986;SDS011;67903;52.108;9.358;2024-03-06T08:31:20;18.75;;;16.70;;
64986;SDS011;67903;52.108;9.358;2024-03-06T08:34:06;22.40;;;17.42;;
64986;SDS011;67903;52.108;9.358;2024-03-06T08:36:52;24.75;;;18.00;;
64986;SDS011;67903;52.108;9.358;2024-03-06T08:39:40;22.20;;;16.38;;
64986;SDS011;67903;52.108;9.358;2024-03-06T08:42:25;20.80;;;17.08;;
64986;SDS011;67903;52.108;9.358;2024-03-06T08:45:12;21.08;;;16.98;;
64986;SDS011;67903;52.108;9.358;2024-03-06T08:47:59;22.27;;;17.65;;
64986;SDS011;67903;52.108;9.358;2024-03-06T08:50:44;20.75;;;16.50;;
64986;SDS011;67903;52.108;9.358;2024-03-06T08:53:31;21.25;;;16.98;;
64986;SDS011;67903;52.108;9.358;2024-03-06T08:56:16;20.42;;;17.38;;
64986;SDS011;67903;52.108;9.358;2024-03-06T08:59:02;19.98;;;16.65;;
64986;SDS011;67903;52.108;9.358;2024-03-06T09:01:48;22.70;;;17.40;;
64986;SDS011;67903;52.108;9.358;2024-03-06T09:04:33;22.17;;;16.90;;
64986;SDS011;67903;52.108;9.358;2024-03-06T09:07:19;22.42;;;16.73;;
64986;SDS011;67903;52.108;9.358;2024-03-06T09:10:09;20.17;;;17.15;;
64986;SDS011;67903;52.108;9.358;2024-03-06T09:12:55;22.52;;;16.50;;
64986;SDS011;67903;52.108;9.358;2024-03-06T09:15:41;21.98;;;16.60;;
64986;SDS011;67903;52.108;9.358;2024-03-06T09:18:27;21.23;;;16.95;;
64986;SDS011;67903;52.108;9.358;2024-03-06T09:21:12;23.77;;;17.15;;
64986;SDS011;67903;52.108;9.358;2024-03-06T09:23:58;20.70;;;17.52;;
64986;SDS011;67903;52.108;9.358;2024-03-06T09:26:43;19.80;;;17.40;;
64986;SDS011;67903;52.108;9.358;2024-03-06T09:29:29;19.92;;;16.90;;
64986;SDS011;67903;52.108;9.358;2024-03-06T09:32:15;20.92;;;16.92;;
64986;SDS011;67903;52.108;9.358;2024-03-06T09:35:05;22.65;;;17.58;;
64986;SDS011;67903;52.108;9.358;2024-03-06T09:37:51;21.17;;;17.80;;
64986;SDS011;67903;52.108;9.358;2024-03-06T09:40:37;20.88;;;16.42;;
64986;SDS011;67903;52.108;9.358;2024-03-06T09:43:22;21.55;;;16.58;;
64986;SDS011;67903;52.108;9.358;2024-03-06T09:46:09;20.15;;;16.73;;
64986;SDS011;67903;52.108;9.358;2024-03-06T09:48:54;22.33;;;18.08;;
64986;SDS011;67903;52.108;9.358;2024-03-06T09:51:44;21.88;;;17.55;;
64986;SDS011;67903;52.108;9.358;2024-03-06T09:54:30;18.92;;;16.35;;
64986;SDS011;67903;52.108;9.358;2024-03-06T09:57:16;22.40;;;16.67;;
64986;SDS011;67903;52.108;9.358;2024-03-06T10:00:01;20.13;;;16.83;;
64986;SDS011;67903;52.108;9.358;2024-03-06T10:02:57;22.63;;;16.65;;
64986;SDS011;67903;52.108;9.358;2024-03-06T10:05:45;20.48;;;17.00;;
64986;SDS011;67903;52.108;9.358;2024-03-06T10:08:31;21.80;;;16.00;;
64986;SDS011;67903;52.108;9.358;2024-03-06T10:11:17;22.27;;;16.42;;
64986;SDS011;67903;52.108;9.358;2024-03-06T10:14:03;19.42;;;16.33;;
64986;SDS011;67903;52.108;9.358;2024-03-06T10:16:53;20.75;;;16.25;;
64986;SDS011;67903;52.108;9.358;2024-03-06T10:19:43;19.30;;;16.17;;
64986;SDS011;67903;52.108;9.358;2024-03-06T10:22:35;19.85;;;16.17;;
64986;SDS011;67903;52.108;9.358;2024-03-06T10:25:21;19.85;;;16.92;;
64986;SDS011;67903;52.108;9.358;2024-03-06T10:28:07;22.08;;;16.98;;
64986;SDS011;67903;52.108;9.358;2024-03-06T10:31:02;18.10;;;16.05;;
64986;SDS011;67903;52.108;9.358;2024-03-06T10:33:50;21.23;;;15.50;;
64986;SDS011;67903;52.108;9.358;2024-03-06T10:36:36;19.15;;;16.02;;
64986;SDS011;67903;52.108;9.358;2024-03-06T10:39:22;19.35;;;15.70;;
64986;SDS011;67903;52.108;9.358;2024-03-06T10:42:09;19.98;;;15.38;;
64986;SDS011;67903;52.108;9.358;2024-03-06T10:44:58;18.75;;;16.17;;
64986;SDS011;67903;52.108;9.358;2024-03-06T10:47:45;18.80;;;15.27;;
64986;SDS011;67903;52.108;9.358;2024-03-06T10:50:34;18.40;;;15.88;;
64986;SDS011;67903;52.108;9.358;2024-03-06T10:53:25;22.33;;;16.08;;
64986;SDS011;67903;52.108;9.358;2024-03-06T10:56:13;22.77;;;16.33;;
64986;SDS011;67903;52.108;9.358;2024-03-06T10:59:00;19.40;;;15.85;;
64986;SDS011;67903;52.108;9.358;2024-03-06T11:01:47;23.55;;;16.95;;
64986;SDS011;67903;52.108;9.358;2024-03-06T11:04:34;20.27;;;16.08;;
64986;SDS011;67903;52.108;9.358;2024-03-06T11:07:20;19.58;;;15.80;;
64986;SDS011;67903;52.108;9.358;2024-03-06T11:10:06;22.75;;;16.45;;
64986;SDS011;67903;52.108;9.358;2024-03-06T11:12:52;18.65;;;15.40;;
64986;SDS011;67903;52.108;9.358;2024-03-06T11:15:38;19.98;;;17.00;;
64986;SDS011;67903;52.108;9.358;2024-03-06T11:24:17;19.75;;;15.77;;
64986;SDS011;67903;52.108;9.358;2024-03-06T11:27:05;17.30;;;15.10;;
64986;SDS011;67903;52.108;9.358;2024-03-06T11:32:58;19.05;;;16.33;;
64986;SDS011;67903;52.108;9.358;2024-03-06T11:39:02;19.52;;;15.18;;
64986;SDS011;67903;52.108;9.358;2024-03-06T11:41:49;19.58;;;15.27;;
64986;SDS011;67903;52.108;9.358;2024-03-06T11:44:36;19.35;;;15.93;;
64986;SDS011;67903;52.108;9.358;2024-03-06T11:47:22;20.13;;;15.88;;
64986;SDS011;67903;52.108;9.358;2024-03-06T11:50:08;16.90;;;15.10;;
64986;SDS011;67903;52.108;9.358;2024-03-06T11:52:54;17.85;;;15.32;;
64986;SDS011;67903;52.108;9.358;2024-03-06T11:55:42;17.17;;;14.10;;
64986;SDS011;67903;52.108;9.358;2024-03-06T11:58:28;19.30;;;14.68;;
64986;SDS011;67903;52.108;9.358;2024-03-06T12:01:14;19.27;;;15.82;;
64986;SDS011;67903;52.108;9.358;2024-03-06T12:04:00;18.75;;;15.20;;
64986;SDS011;67903;52.108;9.358;2024-03-06T12:06:49;20.02;;;15.90;;
64986;SDS011;67903;52.108;9.358;2024-03-06T12:09:35;17.17;;;14.82;;
64986;SDS011;67903;52.108;9.358;2024-03-06T12:12:27;17.52;;;15.40;;
64986;SDS011;67903;52.108;9.358;2024-03-06T12:15:14;17.13;;;15.32;;
64986;SDS011;67903;52.108;9.358;2024-03-06T12:18:00;19.50;;;14.73;;
64986;SDS011;67903;52.108;9.358;2024-03-06T12:20:45;17.55;;;14.98;;
64986;SDS011;67903;52.108;9.358;2024-03-06T12:23:31;17.75;;;15.35;;
64986;SDS011;67903;52.108;9.358;2024-03-06T12:26:17;19.05;;;14.95;;
64986;SDS011;67903;52.108;9.358;2024-03-06T12:29:08;21.30;;;15.48;;
64986;SDS011;67903;52.108;9.358;2024-03-06T12:31:55;19.95;;;15.40;;
64986;SDS011;67903;52.108;9.358;2024-03-06T12:34:42;23.60;;;15.70;;
64986;SDS011;67903;52.108;9.358;2024-03-06T12:37:28;18.48;;;15.38;;
64986;SDS011;67903;52.108;9.358;2024-03-06T12:40:19;17.98;;;15.32;;
64986;SDS011;67903;52.108;9.358;2024-03-06T12:43:05;18.85;;;15.65;;
64986;SDS011;67903;52.108;9.358;2024-03-06T12:45:50;20.55;;;15.23;;
64986;SDS011;67903;52.108;9.358;2024-03-06T12:48:39;20.60;;;15.13;;
64986;SDS011;67903;52.108;9.358;2024-03-06T12:51:25;18.23;;;14.82;;
64986;SDS011;67903;52.108;9.358;2024-03-06T12:54:11;18.38;;;15.38;;
64986;SDS011;67903;52.108;9.358;2024-03-06T12:56:56;20.60;;;16.02;;
64986;SDS011;67903;52.108;9.358;2024-03-06T12:59:42;20.05;;;15.27;;
64986;SDS011;67903;52.108;9.358;2024-03-06T13:02:27;16.73;;;14.65;;
64986;SDS011;67903;52.108;9.358;2024-03-06T13:05:13;19.20;;;15.48;;
64986;SDS011;67903;52.108;9.358;2024-03-06T13:07:59;20.20;;;15.40;;
64986;SDS011;67903;52.108;9.358;2024-03-06T13:10:44;17.73;;;15.63;;
64986;SDS011;67903;52.108;9.358;2024-03-06T13:13:30;17.70;;;15.65;;
64986;SDS011;67903;52.108;9.358;2024-03-06T13:16:17;19.98;;;16.35;;
64986;SDS011;67903;52.108;9.358;2024-03-06T13:19:03;18.27;;;15.48;;
64986;SDS011;67903;52.108;9.358;2024-03-06T13:21:49;19.23;;;14.80;;
64986;SDS011;67903;52.108;9.358;2024-03-06T13:24:34;19.15;;;14.70;;
64986;SDS011;67903;52.108;9.358;2024-03-06T13:27:22;20.35;;;15.63;;
64986;SDS011;67903;52.108;9.358;2024-03-06T13:30:08;19.90;;;15.10;;
64986;SDS011;67903;52.108;9.358;2024-03-06T13:32:54;17.58;;;15.00;;
64986;SDS011;67903;52.108;9.358;2024-03-06T13:35:41;17.90;;;15.98;;
64986;SDS011;67903;52.108;9.358;2024-03-06T13:38:27;19.13;;;15.80;;
64986;SDS011;67903;52.108;9.358;2024-03-06T13:41:13;20.38;;;16.27;;
64986;SDS011;67903;52.108;9.358;2024-03-06T13:43:58;19.17;;;15.90;;
64986;SDS011;67903;52.108;9.358;2024-03-06T13:46:44;19.77;;;15.88;;
64986;SDS011;67903;52.108;9.358;2024-03-06T13:49:36;19.48;;;16.05;;
64986;SDS011;67903;52.108;9.358;2024-03-06T13:52:23;21.15;;;16.90;;
64986;SDS011;67903;52.108;9.358;2024-03-06T13:55:09;20.17;;;16.65;;
64986;SDS011;67903;52.108;9.358;2024-03-06T13:57:54;21.00;;;17.13;;
64986;SDS011;67903;52.108;9.358;2024-03-06T14:00:40;19.08;;;16.20;;
64986;SDS011;67903;52.108;9.358;2024-03-06T14:03:25;19.88;;;16.55;;
64986;SDS011;67903;52.108;9.358;2024-03-06T14:06:11;22.55;;;17.38;;
64986;SDS011;67903;52.108;9.358;2024-03-06T14:08:56;19.70;;;16.42;;
64986;SDS011;67903;52.108;9.358;2024-03-06T14:11:42;19.63;;;16.67;;
64986;SDS011;67903;52.108;9.358;2024-03-06T14:14:28;21.13;;;17.17;;
64986;SDS011;67903;52.108;9.358;2024-03-06T14:17:14;20.73;;;17.08;;
64986;SDS011;67903;52.108;9.358;2024-03-06T14:19:59;17.10;;;15.30;;
64986;SDS011;67903;52.108;9.358;2024-03-06T14:22:45;24.42;;;17.55;;
64986;SDS011;67903;52.108;9.358;2024-03-06T14:25:31;20.15;;;16.98;;
64986;SDS011;67903;52.108;9.358;2024-03-06T14:28:20;23.17;;;17.75;;
64986;SDS011;67903;52.108;9.358;2024-03-06T14:31:05;21.95;;;17.00;;
64986;SDS011;67903;52.108;9.358;2024-03-06T14:33:51;21.80;;;17.38;;
64986;SDS011;67903;52.108;9.358;2024-03-06T14:36:37;21.35;;;17.52;;
64986;SDS011;67903;52.108;9.358;2024-03-06T14:39:23;23.75;;;17.58;;
64986;SDS011;67903;52.108;9.358;2024-03-06T14:42:11;24.50;;;17.35;;
64986;SDS011;67903;52.108;9.358;2024-03-06T14:44:57;21.95;;;17.65;;
64986;SDS011;67903;52.108;9.358;2024-03-06T14:47:43;22.02;;;17.73;;
64986;SDS011;67903;52.108;9.358;2024-03-06T14:50:29;22.08;;;17.90;;
64986;SDS011;67903;52.108;9.358;2024-03-06T14:53:14;20.98;;;17.02;;
64986;SDS011;67903;52.108;9.358;2024-03-06T14:56:00;22.92;;;18.33;;
64986;SDS011;67903;52.108;9.358;2024-03-06T14:58:45;21.65;;;16.95;;
64986;SDS011;67903;52.108;9.358;2024-03-06T15:01:31;22.35;;;17.95;;
64986;SDS011;67903;52.108;9.358;2024-03-06T15:04:16;21.23;;;16.95;;
64986;SDS011;67903;52.108;9.358;2024-03-06T15:07:02;21.38;;;16.83;;
64986;SDS011;67903;52.108;9.358;2024-03-06T15:09:48;21.17;;;17.77;;
64986;SDS011;67903;52.108;9.358;2024-03-06T15:12:36;23.15;;;16.80;;
64986;SDS011;67903;52.108;9.358;2024-03-06T15:15:23;20.65;;;17.70;;
64986;SDS011;67903;52.108;9.358;2024-03-06T15:18:10;24.52;;;16.58;;
64986;SDS011;67903;52.108;9.358;2024-03-06T15:20:55;23.27;;;16.40;;
64986;SDS011;67903;52.108;9.358;2024-03-06T15:23:41;21.85;;;16.10;;
64986;SDS011;67903;52.108;9.358;2024-03-06T15:26:26;24.23;;;16.23;;
64986;SDS011;67903;52.108;9.358;2024-03-06T15:29:12;19.48;;;15.48;;
64986;SDS011;67903;52.108;9.358;2024-03-06T15:31:57;24.25;;;16.60;;
64986;SDS011;67903;52.108;9.358;2024-03-06T15:34:44;21.65;;;16.88;;
64986;SDS011;67903;52.108;9.358;2024-03-06T15:37:30;22.30;;;17.48;;
64986;SDS011;67903;52.108;9.358;2024-03-06T15:40:16;21.20;;;17.30;;
64986;SDS011;67903;52.108;9.358;2024-03-06T15:43:02;21.27;;;16.45;;
64986;SDS011;67903;52.108;9.358;2024-03-06T15:45:48;22.83;;;16.83;;
64986;SDS011;67903;52.108;9.358;2024-03-06T15:48:34;22.30;;;16.90;;
64986;SDS011;67903;52.108;9.358;2024-03-06T15:51:19;22.13;;;16.27;;
64986;SDS011;67903;52.108;9.358;2024-03-06T15:54:05;24.25;;;17.17;;
64986;SDS011;67903;52.108;9.358;2024-03-06T15:56:50;24.60;;;17.10;;
64986;SDS011;67903;52.108;9.358;2024-03-06T15:59:36;25.33;;;18.52;;
64986;SDS011;67903;52.108;9.358;2024-03-06T16:02:22;25.45;;;18.83;;
64986;SDS011;67903;52.108;9.358;2024-03-06T16:05:09;27.13;;;18.33;;
64986;SDS011;67903;52.108;9.358;2024-03-06T16:07:56;21.20;;;16.92;;
64986;SDS011;67903;52.108;9.358;2024-03-06T16:10:50;22.73;;;17.30;;
64986;SDS011;67903;52.108;9.358;2024-03-06T16:13:35;24.48;;;19.35;;
64986;SDS011;67903;52.108;9.358;2024-03-06T16:16:21;25.30;;;18.88;;
64986;SDS011;67903;52.108;9.358;2024-03-06T16:19:06;24.55;;;18.35;;
64986;SDS011;67903;52.108;9.358;2024-03-06T16:21:52;23.98;;;18.08;;
64986;SDS011;67903;52.108;9.358;2024-03-06T16:24:37;24.67;;;17.63;;
64986;SDS011;67903;52.108;9.358;2024-03-06T16:27:24;23.67;;;17.30;;
64986;SDS011;67903;52.108;9.358;2024-03-06T16:30:10;20.58;;;16.83;;
64986;SDS011;67903;52.108;9.358;2024-03-06T16:32:55;22.42;;;16.35;;
64986;SDS011;67903;52.108;9.358;2024-03-06T16:35:41;24.20;;;16.90;;